x

Columbia River Bar - 20nm West Of Columbia River Mouth (46029) Wave Buoy

5:50pm - Sat 21st Oct 2017 All times are PDT. -7 hours from GMT.

  • Sig Wave height 15.4ft
  • Swell Direction
  • Peak Period 10s
  • Average Period 8s
  • Wind
    34mph, 43mph gusts
  • Sea Temp 55°f
  • Air Temp 58°f
  • Sea Pressure 1005mb
  • Columbia River Bar - 20nm West Of Columbia River Mouth
  • Columbia River Bar - 20nm West Of Columbia River Mouth

More Historic Weather Station data

Upgrade to MSW Pro to gain access to the past 30 days of data for over 8000 Wavebouys and Weather Stations around the globe.

Join

Comparision Forecast

View Surf forecast
   
Sat 10/21 5:50pm 15.5ft 10s 8s 34 43 mph 1005mb 55f 58f
4:50pm 16ft 11s 8s 31 38 mph 1004.6mb 55f 58f
3:50pm 17.5ft 11s 8s 31 36 mph 1004.6mb 55f 58f
2:50pm 15ft 10s 8s 29 36 mph 1004.5mb 55f 58f
1:50pm 14ft 11s 8s 22 29 mph 1004.7mb 55f 56f
12:50pm 14.5ft 11s 8s 18 22 mph 1005.5mb 55f 56f
11:50am 16ft 11s 9s 20 22 mph 1005.9mb 55f 56f
10:50am 15ft 10s 8s 16 20 mph 1006.2mb 55f 57f
9:50am 16.5ft 10s 8s 16 18 mph 1006.1mb 54f 56f
8:50am 16.5ft 10s 8s 16 20 mph 1005.6mb 55f 56f
7:50am 16.5ft 9s 8s 20 25 mph 1005.1mb 55f 56f
6:50am 16.5ft 9s 8s 27 36 mph 1004.4mb 54f 55f
5:50am 17.5ft 8s 8s 36 47 mph 1004.2mb 54f 53f
4:50am 15.5ft 14s 8s 38 47 mph 1004.3mb 55f 51f
3:50am 14ft 14s 7s 38 49 mph 1005.1mb 55f 51f
2:50am 14ft 15s 8s 31 40 mph 1007.6mb 55f 52f
1:50am 14ft 14s 8s 29 38 mph 1009.2mb 55f 53f
12:50am 14ft 15s 9s 27 31 mph 1010.2mb 55f 53f
Fri 10/20 11:50pm 13.5ft 15s 9s 22 29 mph 1011.2mb 55f 52f
10:50pm 13ft 15s 9s 20 27 mph 1012mb 55f 54f
9:50pm 14.5ft 15s 9s 20 25 mph 1012.2mb 55f 55f
8:50pm 14.5ft 15s 9s 20 22 mph 1012.7mb 54f 55f
7:50pm 16ft 13s 9s 16 18 mph 1013.2mb 54f 54f
6:50pm 16.5ft 16s 10s 20 25 mph 1013.1mb 54f 53f
5:50pm 16.5ft 14s 9s 16 20 mph 1012.9mb 54f 54f
4:50pm 16.5ft 15s 10s 16 20 mph 1012.6mb 55f 54f
3:50pm 18ft 15s 11s 4 7 mph 1012.3mb 55f 52f
2:50pm 16ft 15s 10s 4 7 mph 1011.7mb 55f 51f
1:50pm 18ft 15s 11s 11 18 mph 1010.9mb 55f 52f
12:50pm 16.5ft 15s 11s 11 16 mph 1010.4mb 55f 52f
11:50am 13ft 15s 9s 7 13 mph 1009.5mb 54f 51f
10:50am 15ft 13s 10s 7 9 mph 1008.6mb 54f 51f
9:50am 16.5ft 16s 11s 16 22 mph 1007.5mb 54f 51f
8:50am 15ft 17s 10s 13 22 mph 1006.5mb 54f 50f
7:50am 18ft 16s 11s 13 18 mph 1005.5mb 54f 54f
6:50am 19.5ft 17s 11s 13 18 mph 1005mb 54f 53f
5:50am 16.5ft 16s 10s 20 25 mph 1004.4mb 54f 54f
4:50am 20ft 17s 11s 16 27 mph 1003.7mb 54f 52f
3:50am 22ft 17s 11s 22 27 mph 1002.7mb 54f 52f
2:50am 21.5ft 17s 11s 18 22 mph 1002.1mb 54f 54f
1:50am 23.5ft 16s 11s 18 20 mph 1001.8mb 54f 55f
12:50am 21.5ft 16s 11s 9 13 mph 1001.7mb 54f 54f
Thu 10/19 11:50pm 24.5ft 15s 12s 11 16 mph 1001.6mb 54f 54f
10:50pm 24.5ft 16s 12s 9 13 mph 1001.4mb 54f 53f
9:50pm 21.5ft 16s 11s 7 13 mph 1000.7mb 55f 51f
8:50pm 23.5ft 17s 11s 16 20 mph 999.7mb 55f 53f
7:50pm 22ft 15s 11s 18 22 mph 999mb 55f 54f
6:50pm 20ft 17s 11s 20 25 mph 998.9mb 55f 54f
5:50pm 18.5ft 17s  -  20 27 mph 998.5mb 55f 55f
4:50pm 20ft 17s 11s 16 20 mph 998.7mb 55f 55f
3:50pm 19.5ft 17s 11s 16 20 mph 999mb 55f 55f
2:50pm 20.5ft 16s 11s 16 20 mph 998.6mb 55f 55f
1:50pm 19.5ft 16s 10s 16 20 mph 999mb 54f 55f
12:50pm 19.5ft 16s 9s 20 25 mph 999.9mb 54f 51f
11:50am 19.5ft 15s 9s 25 31 mph 999.8mb 54f 55f
10:50am 19ft 14s 9s 27 31 mph 999.8mb 54f 54f
9:50am 15.5ft 11s 8s 27 34 mph 1000.2mb 55f 55f
8:50am 15ft 11s 8s 27 31 mph 1000.5mb 55f 55f
7:50am 14ft 11s 7s 22 29 mph 1000.9mb 55f 55f
6:50am 14ft 10s 8s 27 31 mph 1001.4mb 55f 56f
5:50am 13ft 10s 8s 22 29 mph 1001.9mb 55f 56f
4:50am 13ft 11s 8s 20 25 mph 1001.9mb 55f 56f
3:50am 12.5ft 11s 8s 11 16 mph 1002.8mb 55f 55f
2:50am 13.5ft 11s 8s 20 25 mph 1003.1mb 55f 55f
1:50am 13.5ft 11s 8s 22 25 mph 1003.3mb 55f 55f
12:50am 13.5ft 11s 8s 22 27 mph 1003mb 55f 55f
Wed 10/18 11:50pm 14ft 11s 8s 20 25 mph 1003.8mb 55f 55f
10:50pm 14ft 9s 8s 25 29 mph 1003.9mb 55f 55f
9:50pm 14.5ft 10s 8s 22 27 mph 1003.9mb 55f 54f
8:50pm 15ft 10s 8s 13 16 mph 1004.4mb 55f 55f
7:50pm 18.5ft 8s 8s 20 25 mph 1004.7mb 55f 55f
6:50pm 16.5ft 9s 8s 34 43 mph 1003.5mb 55f 57f
5:50pm 15.5ft 8s 7s 36 43 mph 1003.7mb 55f 57f
4:50pm 15.5ft 8s 7s 36 49 mph 1004.4mb 55f 58f
3:50pm 14ft 8s 7s 36 45 mph 1005.2mb 55f 58f
2:50pm 12.5ft 8s 6s 34 43 mph 1006mb 55f 58f
1:50pm 10ft 7s 6s 34 40 mph 1006.6mb 56f 58f
12:50pm 9.5ft 7s 6s 31 38 mph 1007.7mb 56f 58f
11:50am 9ft 7s 6s 29 34 mph 1008.3mb 56f 57f
10:50am 8.5ft 6s 6s 29 36 mph 1008.8mb 56f 57f
9:50am 8ft 6s 6s 31 38 mph 1009.1mb 56f 56f
8:50am 7.5ft 5s 5s 31 38 mph 1009.5mb 56f 56f
7:50am 7ft 9s 6s 29 38 mph 1010.2mb 56f 55f
6:50am 6.5ft 10s 6s 27 34 mph 1011.7mb 56f 56f
5:50am 7ft 10s 7s 25 29 mph 1012.5mb 56f 56f
4:50am 7ft 10s 7s 18 22 mph 1013.6mb 56f 55f
3:50am 7ft 11s 7s 16 18 mph 1015.1mb 56f 55f